Time;durP1;ratioP1;P1;durP2;ratioP2;P2;SDS_P1;SDS_P2;PMS_P1;PMS_P2;Temp;Humidity;BMP_temperature;BMP_pressure;BME280_temperature;BME280_humidity;BME280_pressure;Samples;Min_cycle;Max_cycle;Signal;HPM_P1;HPM_P2
2021/12/16 00:01:55;;;;;;;25.90;8.88;;;7.60;66.40;;;;;;6270830;28;20140;-68
2021/12/16 00:05:19;;;;;;;25.42;9.18;;;7.60;66.40;;;;;;6245418;28;20041;-69
2021/12/16 00:08:30;;;;;;;36.25;10.48;;;7.60;66.40;;;;;;6247118;28;20037;-68
2021/12/16 00:19:35;;;;;;;34.33;9.57;;;7.60;66.30;;;;;;6239837;28;20029;-70
2021/12/16 00:34:50;;;;;;;25.15;9.13;;;7.40;66.70;;;;;;6245775;28;20041;-68
2021/12/16 00:37:51;;;;;;;31.90;9.27;;;7.40;66.80;;;;;;6247725;28;20033;-68
2021/12/16 00:40:54;;;;;;;30.83;11.13;;;7.50;66.90;;;;;;6227851;28;20066;-68
2021/12/16 00:44:09;;;;;;;26.35;8.70;;;7.50;66.90;;;;;;6247791;28;20542;-68
2021/12/16 00:47:49;;;;;;;25.23;8.73;;;7.60;66.80;;;;;;6223037;28;20033;-68
2021/12/16 00:54:31;;;;;;;24.30;8.45;;;7.70;66.50;;;;;;6274958;28;20040;-68
2021/12/16 00:57:25;;;;;;;23.13;7.82;;;7.70;66.30;;;;;;6242095;28;20405;-68
2021/12/16 01:00:29;;;;;;;22.67;7.70;;;7.70;66.20;;;;;;6262205;28;20029;-68
2021/12/16 01:34:46;;;;;;;25.98;8.25;;;7.70;65.50;;;;;;6198866;28;20056;-68
2021/12/16 01:47:54;;;;;;;24.55;8.63;;;7.60;65.70;;;;;;6127988;28;20027;-67
2021/12/16 01:51:03;;;;;;;27.17;8.35;;;7.70;65.60;;;;;;6133319;28;20114;-67
2021/12/16 01:57:43;;;;;;;22.08;8.10;;;7.70;65.60;;;;;;6243358;28;20033;-67
2021/12/16 02:01:01;;;;;;;27.33;9.27;;;7.70;65.40;;;;;;6268784;28;20124;-67
2021/12/16 02:04:13;;;;;;;22.85;9.05;;;7.70;65.40;;;;;;6232536;28;20327;-67
2021/12/16 02:07:32;;;;;;;21.52;8.45;;;7.70;65.50;;;;;;6243530;28;20103;-67
2021/12/16 02:10:40;;;;;;;24.77;9.32;;;7.70;65.40;;;;;;6220681;28;20121;-67
2021/12/16 02:37:15;;;;;;;21.63;10.45;;;7.70;66.00;;;;;;6219096;28;20120;-67
2021/12/16 02:40:18;;;;;;;21.50;9.45;;;7.70;65.90;;;;;;6219825;28;20048;-68
2021/12/16 02:49:48;;;;;;;26.33;9.80;;;7.70;65.60;;;;;;6243135;28;20029;-68
2021/12/16 02:52:49;;;;;;;28.50;9.95;;;7.70;65.70;;;;;;6223222;28;20038;-67
2021/12/16 02:55:51;;;;;;;23.48;10.60;;;7.70;65.70;;;;;;6219648;28;20383;-68
2021/12/16 02:58:55;;;;;;;26.52;8.90;;;7.70;66.40;;;;;;6238314;28;20348;-67
2021/12/16 03:02:05;;;;;;;27.65;9.32;;;7.70;65.40;;;;;;6225946;28;20414;-68
2021/12/16 03:05:09;;;;;;;27.85;9.35;;;7.60;65.40;;;;;;6243983;28;20099;-67
2021/12/16 03:08:10;;;;;;;19.60;8.07;;;7.50;65.60;;;;;;6246054;28;20040;-67
2021/12/16 03:14:27;;;;;;;24.30;8.57;;;7.60;65.50;;;;;;6248541;28;20083;-67
2021/12/16 03:20:47;;;;;;;22.40;8.77;;;7.50;65.50;;;;;;6248216;28;20037;-68
2021/12/16 03:37:01;;;;;;;28.33;8.82;;;7.50;65.70;;;;;;6247835;28;20026;-68
2021/12/16 03:40:10;;;;;;;18.90;8.10;;;7.40;65.70;;;;;;6245931;28;20954;-68
2021/12/16 03:43:13;;;;;;;;;;;7.50;65.80;;;;;;6245426;28;20049;-66
2021/12/16 03:46:26;;;;;;;25.58;8.75;;;7.50;65.70;;;;;;6244785;28;19928;-69
2021/12/16 03:49:29;;;;;;;25.35;8.88;;;7.50;65.60;;;;;;6253688;28;20029;-67
2021/12/16 03:52:33;;;;;;;30.65;10.15;;;7.50;65.60;;;;;;6270657;28;20413;-68
2021/12/16 03:55:36;;;;;;;28.33;7.97;;;7.50;65.80;;;;;;6270537;28;20441;-68
2021/12/16 03:58:39;;;;;;;24.70;9.65;;;7.50;65.80;;;;;;6263741;28;20036;-68
2021/12/16 04:01:42;;;;;;;19.92;8.93;;;7.50;65.70;;;;;;6234225;28;20092;-68
2021/12/16 04:04:45;;;;;;;28.30;10.13;;;7.50;65.70;;;;;;6244402;28;20042;-68
2021/12/16 04:07:46;;;;;;;18.02;7.38;;;7.50;65.70;;;;;;6247122;28;20048;-68
2021/12/16 04:11:19;;;;;;;19.83;9.10;;;7.60;65.60;;;;;;6210791;28;20054;-68
2021/12/16 04:14:41;;;;;;;21.05;8.38;;;7.50;65.40;;;;;;6219884;28;20034;-68
2021/12/16 04:17:43;;;;;;;28.15;8.70;;;7.50;65.50;;;;;;6220765;28;20455;-69
2021/12/16 04:20:45;;;;;;;31.23;10.65;;;7.50;65.50;;;;;;6222585;28;20030;-68
2021/12/16 04:23:48;;;;;;;25.05;8.60;;;7.60;65.60;;;;;;6215746;28;20026;-67
2021/12/16 04:26:52;;;;;;;30.33;9.65;;;7.60;65.50;;;;;;6203871;28;20056;-68
2021/12/16 04:29:53;;;;;;;20.70;9.02;;;7.60;65.20;;;;;;6228487;28;20076;-68
2021/12/16 04:32:54;;;;;;;25.23;8.70;;;7.60;65.10;;;;;;6233623;28;20034;-68
2021/12/16 04:35:57;;;;;;;33.60;10.23;;;7.60;65.30;;;;;;6220182;28;20096;-68
2021/12/16 04:38:59;;;;;;;21.77;8.63;;;7.50;65.30;;;;;;6194857;28;20038;-68
2021/12/16 04:42:02;;;;;;;35.05;8.40;;;7.50;65.60;;;;;;6220467;28;20034;-68
2021/12/16 04:45:07;;;;;;;22.98;9.23;;;7.50;65.50;;;;;;6204008;28;20053;-68
2021/12/16 04:48:09;;;;;;;30.25;9.68;;;7.50;65.60;;;;;;6212537;28;20468;-68
2021/12/16 04:51:16;;;;;;;27.48;9.35;;;7.50;65.70;;;;;;6270420;28;20163;-68
2021/12/16 04:54:20;;;;;;;23.25;9.82;;;7.60;65.80;;;;;;6271944;28;20033;-68
2021/12/16 04:57:22;;;;;;;24.75;8.48;;;7.60;65.60;;;;;;6271753;28;20095;-68
2021/12/16 05:00:26;;;;;;;19.27;9.40;;;7.60;65.40;;;;;;6225597;28;20463;-68
2021/12/16 05:03:42;;;;;;;31.83;8.63;;;7.50;65.40;;;;;;6215192;28;20347;-68
2021/12/16 05:06:44;;;;;;;19.17;6.78;;;7.50;65.60;;;;;;6221659;28;20044;-67
2021/12/16 05:10:03;;;;;;;24.73;9.77;;;7.50;65.60;;;;;;6205505;28;20033;-68
2021/12/16 05:13:05;;;;;;;29.67;9.17;;;7.50;65.60;;;;;;6221639;28;20057;-67
2021/12/16 05:16:07;;;;;;;24.02;7.97;;;7.50;65.70;;;;;;6205805;28;20030;-67
2021/12/16 05:19:13;;;;;;;23.67;7.47;;;7.60;65.80;;;;;;6233015;28;20412;-68
2021/12/16 05:28:56;;;;;;;19.13;7.38;;;7.50;65.40;;;;;;6271482;28;20432;-68
2021/12/16 05:31:58;;;;;;;20.83;6.75;;;7.50;65.60;;;;;;6269785;28;20047;-68
2021/12/16 05:34:59;;;;;;;25.40;9.18;;;7.50;65.70;;;;;;6245402;28;20469;-68
2021/12/16 05:38:01;;;;;;;22.63;8.60;;;7.50;65.80;;;;;;6230423;28;20052;-68
2021/12/16 05:41:07;;;;;;;18.05;6.60;;;7.50;65.70;;;;;;6247219;28;20124;-68
2021/12/16 05:44:12;;;;;;;27.13;8.40;;;7.60;65.70;;;;;;6241850;28;20505;-68
2021/12/16 05:47:13;;;;;;;21.08;7.35;;;7.60;65.20;;;;;;6230680;28;20029;-68
2021/12/16 05:50:15;;;;;;;21.20;7.32;;;7.60;65.10;;;;;;6261183;28;20104;-68
2021/12/16 05:53:17;;;;;;;24.40;8.20;;;7.60;65.20;;;;;;6254460;28;20434;-68
2021/12/16 05:56:19;;;;;;;22.35;9.25;;;7.50;65.20;;;;;;6263522;28;20025;-69
2021/12/16 05:59:21;;;;;;;24.27;8.55;;;7.50;65.40;;;;;;6259242;28;20021;-68
2021/12/16 06:02:24;;;;;;;22.13;8.50;;;7.50;65.40;;;;;;6265574;28;20418;-67
2021/12/16 06:05:26;;;;;;;24.52;8.27;;;7.60;65.40;;;;;;6245854;28;20083;-68
2021/12/16 06:08:28;;;;;;;18.58;7.40;;;7.50;65.30;;;;;;6246191;28;20350;-67
2021/12/16 06:11:32;;;;;;;16.60;7.10;;;7.50;65.20;;;;;;6230500;28;20081;-68
2021/12/16 06:27:35;;;;;;;24.80;8.00;;;7.50;65.40;;;;;;6269473;28;20024;-68
2021/12/16 06:30:40;;;;;;;26.30;8.32;;;7.50;65.30;;;;;;6266737;28;20029;-68
2021/12/16 06:33:42;;;;;;;28.92;9.13;;;7.60;65.20;;;;;;6251509;28;20050;-68
2021/12/16 06:36:43;;;;;;;25.63;8.95;;;7.50;65.00;;;;;;6239390;28;20120;-67
2021/12/16 06:39:45;;;;;;;23.67;8.70;;;7.60;65.00;;;;;;6242225;28;20419;-67
2021/12/16 06:43:10;;;;;;;23.45;7.60;;;7.50;65.10;;;;;;6241841;28;20045;-69
2021/12/16 06:46:17;;;;;;;25.98;8.45;;;7.60;65.20;;;;;;6235554;28;22244;-69
2021/12/16 06:49:19;;;;;;;17.42;7.95;;;7.60;65.00;;;;;;6244523;28;20029;-68
2021/12/16 06:52:28;;;;;;;27.35;8.68;;;7.60;64.90;;;;;;6248913;28;20034;-68
2021/12/16 06:58:43;;;;;;;22.20;8.13;;;7.70;64.90;;;;;;6253451;28;20409;-68
2021/12/16 07:01:58;;;;;;;24.83;9.18;;;7.70;64.60;;;;;;6271817;28;20037;-68
2021/12/16 07:04:59;;;;;;;28.80;9.57;;;7.70;64.60;;;;;;6247892;28;20049;-67
2021/12/16 07:08:03;;;;;;;19.42;7.88;;;7.80;64.60;;;;;;6249296;28;20041;-68
2021/12/16 07:11:04;;;;;;;29.13;10.02;;;7.80;64.60;;;;;;6249561;28;20477;-68
2021/12/16 07:14:05;;;;;;;21.92;8.43;;;7.90;64.60;;;;;;6248119;28;20026;-68
2021/12/16 07:17:11;;;;;;;17.92;7.43;;;7.90;64.60;;;;;;6247707;28;20469;-68
2021/12/16 07:20:14;;;;;;;18.30;7.70;;;8.00;64.30;;;;;;6260829;28;20048;-68
2021/12/16 07:23:16;;;;;;;26.20;8.48;;;8.00;64.00;;;;;;6248566;28;20370;-68
2021/12/16 07:26:17;;;;;;;19.00;8.00;;;7.90;64.10;;;;;;6269964;28;20044;-69
2021/12/16 07:29:19;;;;;;;23.20;7.80;;;8.00;64.00;;;;;;6262126;28;20030;-69
2021/12/16 07:32:21;;;;;;;16.38;7.43;;;7.90;63.80;;;;;;6246946;28;20033;-69
2021/12/16 07:35:25;;;;;;;15.25;6.53;;;7.90;63.80;;;;;;6247308;28;20121;-69
2021/12/16 07:38:26;;;;;;;20.95;7.50;;;7.90;63.90;;;;;;6249159;28;20373;-67
2021/12/16 07:41:32;;;;;;;19.80;8.90;;;7.90;63.80;;;;;;6247418;28;20033;-68
2021/12/16 07:44:34;;;;;;;26.77;7.93;;;7.90;63.90;;;;;;6248827;28;20435;-68
2021/12/16 07:47:36;;;;;;;17.63;7.13;;;7.90;63.70;;;;;;6247551;28;20034;-68
2021/12/16 07:50:39;;;;;;;24.75;8.50;;;8.00;63.60;;;;;;6263823;28;20132;-69
2021/12/16 07:53:41;;;;;;;21.63;7.05;;;8.00;63.50;;;;;;6273753;28;20048;-69
2021/12/16 07:56:44;;;;;;;29.10;9.27;;;8.00;64.30;;;;;;6272396;28;20064;-68
2021/12/16 07:59:45;;;;;;;29.48;10.98;;;7.90;63.40;;;;;;6272211;28;20037;-67
2021/12/16 08:02:46;;;;;;;36.47;11.20;;;8.00;64.40;;;;;;6258343;28;20052;-68
2021/12/16 08:05:54;;;;;;;39.90;12.00;;;8.00;63.50;;;;;;6223193;28;20439;-69
2021/12/16 08:09:02;;;;;;;33.83;11.57;;;8.00;63.40;;;;;;6224209;28;20034;-67
2021/12/16 08:12:04;;;;;;;25.48;11.07;;;8.00;63.50;;;;;;6224071;28;20109;-69
2021/12/16 08:15:07;;;;;;;24.88;9.82;;;8.10;63.60;;;;;;6237848;28;20031;-69
2021/12/16 08:18:08;;;;;;;29.83;10.38;;;8.10;63.50;;;;;;6249271;28;20065;-69
2021/12/16 08:21:09;;;;;;;28.65;10.88;;;8.10;63.40;;;;;;6268977;28;20124;-69
2021/12/16 08:24:16;;;;;;;23.23;9.07;;;8.10;63.20;;;;;;6273228;28;20039;-69
2021/12/16 08:27:18;;;;;;;26.17;11.18;;;8.10;63.20;;;;;;6274345;28;20373;-69
2021/12/16 08:30:21;;;;;;;36.33;12.20;;;8.10;63.20;;;;;;6272250;28;20040;-68
2021/12/16 08:33:22;;;;;;;22.75;9.52;;;8.10;63.00;;;;;;6240099;28;20163;-69
2021/12/16 08:36:24;;;;;;;32.50;9.73;;;8.10;63.10;;;;;;6248512;28;20029;-69
2021/12/16 08:39:26;;;;;;;30.50;8.50;;;8.10;63.10;;;;;;6245841;28;20041;-69
2021/12/16 08:42:27;;;;;;;24.58;8.60;;;8.10;63.10;;;;;;6249027;28;20050;-69
2021/12/16 08:45:31;;;;;;;28.67;11.20;;;8.20;63.10;;;;;;6230442;28;20049;-69
2021/12/16 08:48:33;;;;;;;30.52;10.93;;;8.20;63.00;;;;;;6251973;28;20033;-68
2021/12/16 08:51:38;;;;;;;31.75;10.98;;;8.20;62.90;;;;;;6272980;28;20059;-68
2021/12/16 08:54:40;;;;;;;30.90;11.77;;;8.20;62.80;;;;;;6273204;28;20043;-69
2021/12/16 08:57:42;;;;;;;28.83;10.48;;;8.20;62.70;;;;;;6271927;28;20025;-68
2021/12/16 09:00:52;;;;;;;26.88;10.13;;;8.20;62.70;;;;;;6272947;28;20075;-70
2021/12/16 09:03:56;;;;;;;29.02;11.20;;;8.20;62.70;;;;;;6254715;28;20053;-68
2021/12/16 09:07:03;;;;;;;17.70;7.88;;;8.20;62.80;;;;;;6246312;28;20087;-68
2021/12/16 09:10:10;;;;;;;17.23;7.03;;;8.20;62.70;;;;;;6247715;28;20431;-68
2021/12/16 09:13:14;;;;;;;22.92;7.85;;;8.20;62.60;;;;;;6228327;28;20060;-69
2021/12/16 09:16:19;;;;;;;17.52;6.70;;;8.30;62.40;;;;;;6229144;28;20378;-68
2021/12/16 09:19:20;;;;;;;20.48;7.95;;;8.30;62.20;;;;;;6256508;28;20487;-68
2021/12/16 09:22:24;;;;;;;25.33;8.52;;;8.30;62.00;;;;;;6271598;28;20087;-69
2021/12/16 09:25:25;;;;;;;20.27;8.77;;;8.40;61.90;;;;;;6272769;28;20063;-69
2021/12/16 09:28:27;;;;;;;22.27;8.45;;;8.40;61.80;;;;;;6273409;28;20458;-68
2021/12/16 09:31:29;;;;;;;21.25;8.05;;;8.40;61.90;;;;;;6271984;28;20032;-68
2021/12/16 09:34:32;;;;;;;20.48;8.80;;;8.40;61.70;;;;;;6212406;28;20041;-68
2021/12/16 09:37:33;;;;;;;22.83;8.15;;;8.40;61.60;;;;;;6239832;28;20029;-68
2021/12/16 09:40:38;;;;;;;24.33;9.20;;;8.40;61.50;;;;;;6224076;28;20044;-70
2021/12/16 09:43:43;;;;;;;26.10;7.82;;;8.30;61.50;;;;;;6223630;28;20562;-67
2021/12/16 09:46:50;;;;;;;24.45;9.02;;;8.40;61.90;;;;;;6197834;28;20046;-68
2021/12/16 09:49:51;;;;;;;25.35;8.57;;;8.40;61.90;;;;;;6217704;28;20045;-69
2021/12/16 09:52:53;;;;;;;25.65;9.10;;;8.50;61.90;;;;;;6246705;28;20095;-67
2021/12/16 09:56:00;;;;;;;32.50;7.20;;;8.50;61.70;;;;;;6246901;28;20045;-69
2021/12/16 09:59:04;;;;;;;21.05;8.27;;;8.50;61.60;;;;;;6237557;28;20113;-68
2021/12/16 10:02:12;;;;;;;19.98;8.50;;;8.60;61.40;;;;;;6221164;28;20060;-67
2021/12/16 10:05:13;;;;;;;18.58;8.15;;;8.50;61.30;;;;;;6198637;28;20133;-68
2021/12/16 10:08:15;;;;;;;27.33;8.95;;;8.50;61.30;;;;;;6198969;28;20435;-68
2021/12/16 10:11:17;;;;;;;28.38;8.57;;;8.50;61.40;;;;;;6197988;28;20070;-70
2021/12/16 10:17:35;;;;;;;22.42;9.32;;;8.50;61.50;;;;;;6198708;28;20447;-68
2021/12/16 10:20:41;;;;;;;24.65;9.48;;;8.60;61.30;;;;;;6243065;28;20466;-68
2021/12/16 10:23:44;;;;;;;19.45;8.40;;;8.60;61.20;;;;;;6256235;28;20057;-68
2021/12/16 10:26:45;;;;;;;19.10;7.20;;;8.60;61.20;;;;;;6275898;28;20033;-68
2021/12/16 10:29:49;;;;;;;23.30;7.80;;;8.60;61.30;;;;;;6260464;28;20362;-69
2021/12/16 10:32:51;;;;;;;25.02;9.10;;;8.70;61.30;;;;;;6251153;28;20033;-68
2021/12/16 10:36:01;;;;;;;23.77;8.70;;;8.70;61.00;;;;;;6252200;28;20052;-69
2021/12/16 10:39:07;;;;;;;20.35;8.48;;;8.70;61.00;;;;;;6251125;28;20123;-69
2021/12/16 10:42:09;;;;;;;21.13;7.95;;;8.80;60.90;;;;;;6234096;28;20037;-68
2021/12/16 10:45:26;;;;;;;24.88;9.85;;;8.80;60.70;;;;;;6232483;28;20108;-70
2021/12/16 10:48:33;;;;;;;19.10;7.70;;;8.80;60.70;;;;;;6237890;28;20041;-68
2021/12/16 10:51:43;;;;;;;29.35;10.57;;;8.80;60.40;;;;;;6252064;28;20029;-71
2021/12/16 10:54:48;;;;;;;26.45;9.25;;;8.80;60.40;;;;;;6252849;28;20060;-67
2021/12/16 10:57:50;;;;;;;19.90;7.90;;;8.80;60.50;;;;;;6251998;28;20033;-67
2021/12/16 11:00:52;;;;;;;16.08;7.30;;;8.80;60.40;;;;;;6226115;28;20033;-68
2021/12/16 11:03:53;;;;;;;30.05;10.25;;;8.80;60.30;;;;;;6243752;28;20033;-69
2021/12/16 11:06:59;;;;;;;36.55;11.07;;;8.80;60.50;;;;;;6250480;28;20141;-70
2021/12/16 11:10:18;;;;;;;33.10;10.77;;;8.80;60.50;;;;;;6251489;28;20033;-68
2021/12/16 11:13:19;;;;;;;25.77;10.35;;;8.90;60.40;;;;;;6251545;28;20038;-69
2021/12/16 11:16:32;;;;;;;21.95;9.43;;;8.90;60.20;;;;;;6233970;28;20049;-69
2021/12/16 11:19:40;;;;;;;20.55;8.35;;;9.00;60.10;;;;;;6256148;28;20065;-70
2021/12/16 11:22:42;;;;;;;27.85;10.60;;;9.10;60.10;;;;;;6274883;28;20032;-68
2021/12/16 11:25:51;;;;;;;18.40;7.38;;;9.10;60.10;;;;;;6275708;28;20112;-69
2021/12/16 11:28:54;;;;;;;42.38;14.77;;;9.10;59.80;;;;;;6276180;28;20037;-68
2021/12/16 11:31:56;;;;;;;29.80;11.57;;;9.20;59.70;;;;;;6273877;28;20048;-68
2021/12/16 11:34:57;;;;;;;28.00;10.63;;;9.20;59.70;;;;;;6255563;28;20383;-69
2021/12/16 11:38:04;;;;;;;23.23;9.82;;;9.10;59.60;;;;;;6251236;28;20030;-68
2021/12/16 11:41:08;;;;;;;17.95;7.97;;;9.20;59.50;;;;;;6250189;28;20041;-68
2021/12/16 11:44:16;;;;;;;34.25;10.02;;;9.10;59.40;;;;;;6233906;28;20030;-70
2021/12/16 11:47:22;;;;;;;17.77;7.82;;;9.20;59.40;;;;;;6250864;28;20370;-68
2021/12/16 11:50:33;;;;;;;31.60;9.75;;;9.20;59.40;;;;;;6263321;28;20095;-68
2021/12/16 11:53:41;;;;;;;33.13;12.70;;;9.20;59.40;;;;;;6274373;28;20032;-68
2021/12/16 11:57:06;;;;;;;23.58;9.55;;;9.20;59.30;;;;;;6275742;28;20114;-69
2021/12/16 12:00:13;;;;;;;22.13;9.57;;;9.20;59.20;;;;;;6275733;28;20066;-69
2021/12/16 12:03:15;;;;;;;27.88;9.38;;;9.20;59.20;;;;;;6261543;28;20060;-69
2021/12/16 12:06:22;;;;;;;27.60;11.30;;;9.20;59.10;;;;;;6249993;28;20172;-69
2021/12/16 12:09:36;;;;;;;24.60;9.30;;;9.30;59.10;;;;;;6250665;28;20033;-68
2021/12/16 12:12:46;;;;;;;26.35;9.75;;;9.20;58.90;;;;;;6232747;28;20064;-69
2021/12/16 12:16:12;;;;;;;22.63;8.95;;;9.20;59.00;;;;;;6248728;28;20092;-69
2021/12/16 12:19:22;;;;;;;27.75;10.52;;;9.20;58.80;;;;;;6251524;28;20033;-69
2021/12/16 12:22:25;;;;;;;25.00;8.82;;;9.20;58.80;;;;;;6258246;28;20174;-70
2021/12/16 12:25:26;;;;;;;29.40;11.88;;;9.20;58.80;;;;;;6249666;28;20034;-68
2021/12/16 12:28:27;;;;;;;21.55;9.70;;;9.20;58.90;;;;;;6254336;28;20043;-68
2021/12/16 12:31:32;;;;;;;39.58;15.32;;;9.20;58.70;;;;;;6273557;28;20025;-69
2021/12/16 12:34:35;;;;;;;24.98;9.93;;;9.20;58.70;;;;;;6249024;28;20033;-69
2021/12/16 12:37:40;;;;;;;22.60;10.13;;;9.20;58.70;;;;;;6249595;28;20030;-67
2021/12/16 12:40:41;;;;;;;31.63;10.63;;;9.20;58.70;;;;;;6248297;28;20108;-68
2021/12/16 12:43:43;;;;;;;22.45;9.27;;;9.30;58.50;;;;;;6247990;28;20038;-68
2021/12/16 12:46:45;;;;;;;27.60;10.75;;;9.30;58.60;;;;;;6247600;28;20418;-69
2021/12/16 12:49:47;;;;;;;26.52;10.85;;;9.30;58.50;;;;;;6238854;28;20037;-70
2021/12/16 12:52:51;;;;;;;24.70;8.70;;;9.30;58.50;;;;;;6273573;28;20029;-68
2021/12/16 12:55:56;;;;;;;20.23;8.18;;;9.40;58.40;;;;;;6254244;28;20048;-68
2021/12/16 12:59:06;;;;;;;24.30;9.00;;;9.40;58.20;;;;;;6257243;28;20044;-68
2021/12/16 13:02:20;;;;;;;27.35;9.35;;;9.40;58.20;;;;;;6244682;28;20421;-69
2021/12/16 13:05:22;;;;;;;20.08;7.75;;;9.40;58.20;;;;;;6198544;28;20505;-69
2021/12/16 13:08:33;;;;;;;18.85;8.80;;;9.40;58.20;;;;;;6199850;28;20439;-68
2021/12/16 13:11:34;;;;;;;19.23;8.75;;;9.40;58.20;;;;;;6198714;28;20035;-70
2021/12/16 13:14:45;;;;;;;24.27;9.13;;;9.50;58.20;;;;;;6198800;28;20061;-68
2021/12/16 13:27:48;;;;;;;24.15;9.38;;;9.50;58.00;;;;;;6246339;28;20467;-69
2021/12/16 13:30:59;;;;;;;21.65;8.10;;;9.50;58.00;;;;;;6246102;28;20118;-68
2021/12/16 13:34:02;;;;;;;22.98;10.25;;;9.60;58.00;;;;;;6226889;28;20164;-69
2021/12/16 13:37:11;;;;;;;22.35;8.80;;;9.50;57.90;;;;;;6221272;28;20077;-68
2021/12/16 13:40:14;;;;;;;22.63;9.35;;;9.50;58.00;;;;;;6221599;28;20045;-69
2021/12/16 13:43:20;;;;;;;20.70;9.30;;;9.50;57.90;;;;;;6221437;28;20112;-68
2021/12/16 13:46:32;;;;;;;23.17;8.85;;;9.60;58.00;;;;;;6221106;28;20049;-68
2021/12/16 14:07:40;;;;;;;24.73;8.65;;;9.50;57.70;;;;;;6189940;28;20054;-68
2021/12/16 14:10:53;;;;;;;17.70;7.50;;;9.50;57.80;;;;;;6190366;28;20480;-68
2021/12/16 14:14:27;;;;;;;24.20;8.93;;;9.50;57.80;;;;;;6189901;28;20034;-69
2021/12/16 14:24:23;;;;;;;28.25;8.60;;;9.40;57.90;;;;;;6214636;28;20026;-69
2021/12/16 14:37:20;;;;;;;20.42;7.88;;;9.40;57.90;;;;;;6242273;28;20025;-68
2021/12/16 14:43:57;;;;;;;21.67;9.60;;;9.40;57.90;;;;;;6187953;28;20053;-68
2021/12/16 14:48:09;;;;;;;24.15;9.10;;;9.40;57.80;;;;;;6166231;28;20039;-68
2021/12/16 14:50:47;;;;;;;18.75;8.55;;;9.40;57.90;;;;;;6156968;28;20027;-68
2021/12/16 14:53:54;;;;;;;23.38;9.88;;;9.30;57.90;;;;;;6174427;28;20035;-68
2021/12/16 14:57:00;;;;;;;32.78;11.88;;;9.40;57.90;;;;;;6177264;28;20042;-68
2021/12/16 15:00:17;;;;;;;24.30;9.20;;;9.40;58.00;;;;;;6200802;28;20030;-68
2021/12/16 15:03:21;;;;;;;27.95;10.93;;;9.40;57.90;;;;;;6189666;28;20034;-68
2021/12/16 15:06:32;;;;;;;20.85;9.00;;;9.40;57.90;;;;;;6192610;28;20061;-69
2021/12/16 15:09:37;;;;;;;20.63;9.43;;;9.40;57.90;;;;;;6177090;28;20030;-70
2021/12/16 15:12:47;;;;;;;24.23;7.95;;;9.40;57.60;;;;;;6197292;28;20038;-70
2021/12/16 15:34:05;;;;;;;17.15;7.28;;;9.40;57.50;;;;;;6225747;28;20050;-68
2021/12/16 15:45:33;;;;;;;19.40;7.43;;;9.30;57.90;;;;;;6236460;28;20041;-68
2021/12/16 15:48:35;;;;;;;21.45;8.30;;;9.30;57.40;;;;;;6221655;28;21571;-69
2021/12/16 15:51:36;;;;;;;19.40;7.55;;;9.20;57.40;;;;;;6224463;28;20041;-69
2021/12/16 15:54:39;;;;;;;17.08;7.45;;;9.20;57.50;;;;;;6246599;28;20045;-68
2021/12/16 15:57:40;;;;;;;25.15;7.45;;;9.20;57.50;;;;;;6244783;28;20467;-69
2021/12/16 16:00:45;;;;;;;20.08;7.10;;;9.20;57.60;;;;;;6251586;28;20081;-69
2021/12/16 16:03:47;;;;;;;17.75;7.47;;;9.20;57.50;;;;;;6228406;28;20038;-69
2021/12/16 16:06:57;;;;;;;14.25;6.97;;;9.20;57.50;;;;;;6243283;28;20033;-69
2021/12/16 16:09:59;;;;;;;21.95;9.18;;;9.10;57.50;;;;;;6252286;28;20468;-69
2021/12/16 16:13:31;;;;;;;23.48;9.10;;;9.20;57.60;;;;;;6247358;28;20037;-69
2021/12/16 16:16:41;;;;;;;20.63;8.68;;;9.20;57.70;;;;;;6203668;28;20038;-67
2021/12/16 16:19:44;;;;;;;21.63;7.80;;;9.20;57.60;;;;;;6205556;28;20037;-69
2021/12/16 16:22:47;;;;;;;18.70;7.95;;;9.20;57.50;;;;;;6228129;28;20099;-68
2021/12/16 16:25:49;;;;;;;20.52;8.15;;;9.10;57.40;;;;;;6244823;28;20108;-68
2021/12/16 16:28:55;;;;;;;17.30;6.85;;;9.10;57.60;;;;;;6237503;28;20054;-69
2021/12/16 16:31:58;;;;;;;22.17;8.77;;;9.10;57.70;;;;;;6204514;28;20392;-68
2021/12/16 16:35:00;;;;;;;14.75;7.13;;;9.10;57.60;;;;;;6180218;28;20117;-69
2021/12/16 16:38:18;;;;;;;21.23;8.10;;;9.20;57.70;;;;;;6196346;28;20058;-68
2021/12/16 16:41:24;;;;;;;21.77;7.97;;;9.20;57.60;;;;;;6194509;28;20030;-68
2021/12/16 16:44:27;;;;;;;22.88;8.65;;;9.20;57.60;;;;;;6179191;28;20051;-68
2021/12/16 16:47:46;;;;;;;20.45;8.10;;;9.20;57.60;;;;;;6194958;28;20042;-68
2021/12/16 16:50:49;;;;;;;16.00;7.53;;;9.30;57.60;;;;;;6214355;28;20049;-68
2021/12/16 16:53:55;;;;;;;20.42;8.13;;;9.30;57.40;;;;;;6187309;28;20045;-69
2021/12/16 16:57:30;;;;;;;20.33;7.57;;;9.30;57.40;;;;;;6203912;28;20030;-68
2021/12/16 17:00:38;;;;;;;22.00;8.57;;;9.30;57.50;;;;;;6185374;28;20034;-71
2021/12/16 17:03:44;;;;;;;;;;;9.20;57.40;;;;;;6162009;28;20042;-68
2021/12/16 17:06:50;;;;;;;21.30;7.80;;;9.20;57.20;;;;;;6208209;28;20267;-68
2021/12/16 17:09:51;;;;;;;21.00;8.07;;;9.20;57.30;;;;;;6220547;28;20046;-69
2021/12/16 17:13:21;;;;;;;34.63;9.85;;;9.10;57.30;;;;;;6203578;28;20443;-68
2021/12/16 17:20:00;;;;;;;23.73;9.52;;;9.10;57.50;;;;;;6221668;28;20435;-68
2021/12/16 17:23:01;;;;;;;24.25;9.38;;;9.10;57.60;;;;;;6226437;28;20375;-69
2021/12/16 17:26:23;;;;;;;18.98;7.38;;;9.20;57.60;;;;;;6226328;28;20034;-67
2021/12/16 17:29:38;;;;;;;23.27;7.85;;;9.20;57.40;;;;;;6218932;28;20034;-70
2021/12/16 17:32:43;;;;;;;19.13;8.20;;;9.20;57.30;;;;;;6202663;28;20041;-68
2021/12/16 17:35:46;;;;;;;23.55;9.20;;;9.20;57.30;;;;;;6200069;28;20116;-69
2021/12/16 17:38:47;;;;;;;15.90;7.88;;;9.20;57.30;;;;;;6203163;28;20076;-68
2021/12/16 17:42:06;;;;;;;17.77;7.32;;;9.20;57.40;;;;;;6220085;28;20396;-68
2021/12/16 17:45:18;;;;;;;20.60;9.27;;;9.20;57.30;;;;;;6219862;28;20050;-69
2021/12/16 17:48:26;;;;;;;19.75;7.88;;;9.20;57.20;;;;;;6220543;28;20038;-68
2021/12/16 17:51:29;;;;;;;18.52;8.48;;;9.20;57.20;;;;;;6257897;28;20045;-68
2021/12/16 17:54:38;;;;;;;24.08;9.93;;;9.20;57.10;;;;;;6269033;28;20025;-69
2021/12/16 17:57:44;;;;;;;23.52;9.60;;;9.10;57.20;;;;;;6270816;28;20040;-68
2021/12/16 18:00:47;;;;;;;20.83;8.57;;;9.10;57.10;;;;;;6270298;28;20036;-69
2021/12/16 18:03:57;;;;;;;25.08;9.68;;;9.10;57.10;;;;;;6251476;28;20056;-69
2021/12/16 18:07:02;;;;;;;19.70;7.68;;;9.10;57.10;;;;;;6245443;28;20491;-69
2021/12/16 18:10:04;;;;;;;16.48;7.80;;;9.10;57.20;;;;;;6227060;28;20425;-69
2021/12/16 18:13:11;;;;;;;21.20;9.25;;;9.00;57.00;;;;;;6202954;28;20519;-69
2021/12/16 18:16:19;;;;;;;31.02;12.13;;;9.00;57.10;;;;;;6219830;28;20034;-68
2021/12/16 18:19:33;;;;;;;25.00;8.90;;;9.00;57.20;;;;;;6223715;28;20130;-68
2021/12/16 18:22:38;;;;;;;31.00;9.93;;;9.00;57.30;;;;;;6269448;28;20036;-69
2021/12/16 18:25:46;;;;;;;28.73;12.07;;;9.10;57.40;;;;;;6228246;28;20041;-69
2021/12/16 18:28:49;;;;;;;24.92;9.68;;;9.10;57.40;;;;;;6256636;28;20034;-68
2021/12/16 18:31:51;;;;;;;25.00;10.40;;;9.10;57.40;;;;;;6245824;28;20041;-69
2021/12/16 18:34:53;;;;;;;25.40;9.80;;;9.10;57.30;;;;;;6243119;28;20481;-69
2021/12/16 18:37:54;;;;;;;28.70;9.50;;;9.10;57.50;;;;;;6244511;28;20046;-67
2021/12/16 18:40:59;;;;;;;25.98;9.70;;;9.00;57.70;;;;;;6245370;28;20048;-69
2021/12/16 18:44:01;;;;;;;19.30;8.70;;;9.00;57.90;;;;;;6245820;28;20051;-69
2021/12/16 18:47:27;;;;;;;27.15;9.93;;;9.10;57.90;;;;;;6249361;28;20049;-68
2021/12/16 18:57:18;;;;;;;39.33;14.98;;;9.10;58.10;;;;;;6272192;28;20120;-69
2021/12/16 19:00:19;;;;;;;39.65;15.48;;;9.10;58.10;;;;;;6248730;28;20029;-68
2021/12/16 19:03:21;;;;;;;22.92;9.90;;;9.00;58.20;;;;;;6246921;28;20060;-69
2021/12/16 19:06:27;;;;;;;35.40;12.88;;;9.00;58.30;;;;;;6247619;28;20041;-69
2021/12/16 19:09:29;;;;;;;41.33;16.27;;;9.00;58.30;;;;;;6249241;28;20119;-68
2021/12/16 19:12:32;;;;;;;39.65;14.82;;;9.00;58.40;;;;;;6206887;28;20329;-69
2021/12/16 19:15:33;;;;;;;23.10;9.48;;;9.00;58.40;;;;;;6247221;28;20061;-69
2021/12/16 19:18:38;;;;;;;28.92;9.57;;;9.00;58.30;;;;;;6231114;28;20048;-68
2021/12/16 19:21:39;;;;;;;26.00;10.60;;;9.00;58.30;;;;;;6247731;28;20450;-68
2021/12/16 19:24:42;;;;;;;24.17;10.52;;;9.00;58.30;;;;;;6248170;28;20119;-69
2021/12/16 19:27:43;;;;;;;38.13;14.50;;;9.00;58.30;;;;;;6206930;28;20478;-69
2021/12/16 19:30:49;;;;;;;31.27;11.55;;;9.10;58.40;;;;;;6271337;28;20063;-70
2021/12/16 19:33:52;;;;;;;38.17;13.57;;;9.00;58.30;;;;;;6255088;28;20033;-69
2021/12/16 19:36:54;;;;;;;28.45;10.02;;;9.00;58.30;;;;;;6247516;28;20049;-69
2021/12/16 19:39:55;;;;;;;33.67;14.05;;;8.90;58.20;;;;;;6248845;28;20033;-69
2021/12/16 19:42:59;;;;;;;32.45;13.15;;;8.80;58.40;;;;;;6246902;28;20045;-68
2021/12/16 19:45:59;;;;;;;34.85;11.88;;;8.80;58.50;;;;;;6249835;28;20038;-68
2021/12/16 19:49:03;;;;;;;35.90;12.73;;;8.80;58.50;;;;;;6249563;28;20358;-68
2021/12/16 19:52:05;;;;;;;27.10;9.40;;;8.90;58.60;;;;;;6272785;28;20049;-70
2021/12/16 19:55:07;;;;;;;30.23;10.23;;;8.90;58.60;;;;;;6271367;28;20040;-68